Saticoy, California
Current Conditions -  °F | °C
As of 1:51 PM on Friday 31 Oct 2014 (Local Time) from KOXR Reporting Station
Overcast Overcast  
Wind Chill: 69°   Ceiling: 4200
Heat Index: 69°   Visibility: 10mi
Dew Point: 55°   Wind: 6mph
Humidity: 61%   Direction: 150°SSE
Pressure: 29.88"   Gusts: NA
Location:  34.287°N, 119.172°W
Report Text: KOXR 312051Z 15005KT 10SM OVC042 21/13 A2988 RMK AO2 SLP118 T02060128 58025
Loading
Personal Weather Stations






























Interactive Weather Map
Tropical Storm Tracking
New forecast layout! Learn more

10-Day Weather Forecast

Advertisements
Track Severe Weather on mobile